• Join FlightAware (Why Join?)
  • Login
  • US Flag 
11:24AM EDT


 

Airport Tracker/Info


-or-


 

Live Flight TrackerFlight Track Log ✈ SWA1017 ✈ 19-Mar-2014 ✈ KLBB - KAUS

Flight Track Log - Related Links

Times and Time Zones

All times are in EDT time to prevent confusion due to time zone crossing. See the SWA1017 flight status page for this flight to view local times or setup timezone preferences in your user account.

Time Position Orientation Groundspeed Altitude Reporting Facility
EDT Latitude Longitude Course Direction KTS MPH feet Rate Location/Type
08:21PM 33.6628 -101.7861 92° East 152 175 4,300  Level Fort Worth Center
08:21PM 33.6622 -101.7683 92° East 164 189 4,800 2,040 Climbing Fort Worth Center
08:22PM 33.6553 -101.6939 96° East 248 285 7,000 2,400 Climbing Fort Worth Center
08:23PM 33.6392 -101.6200 105° East 265 305 9,300 2,700 Climbing Fort Worth Center
08:23PM 33.6356 -101.6042 105° East 301 346 9,700 2,820 Climbing Fort Worth Center
08:24PM 33.6161 -101.5144 105° East 323 372 12,300 3,060 Climbing Fort Worth Center
08:25PM 33.5883 -101.3917 105° East 352 405 15,600 2,700 Climbing Fort Worth Center
08:26PM 33.5481 -101.2744 112° Southeast 393 452 17,900 2,640 Climbing Fort Worth Center
08:27PM 33.4597 -101.1886 141° Southeast 383 441 21,100 2,520 Climbing Fort Worth Center
08:28PM 33.3761 -101.1086 141° Southeast 383 441 23,200 1,980 Climbing Fort Worth Center
08:29PM 33.2972 -101.0347 142° Southeast 405 466 25,300 1,860 Climbing Fort Worth Center
08:30PM 33.1864 -100.9331 142° Southeast 413 475 27,100 1,920 Climbing Fort Worth Center
08:31PM 33.0833 -100.8367 142° Southeast 438 504 29,300 1,680 Climbing Fort Worth Center
08:32PM 32.9933 -100.7533 142° Southeast 439 505 30,600 1,620 Climbing Fort Worth Center
08:34PM 32.7903 -100.5675 142° Southeast 461 531 34,400 1,380 Climbing Fort Worth Center
08:35PM 32.6747 -100.4633 143° Southeast 445 512 35,000 240 Climbing Fort Worth Center
08:36PM 32.5775 -100.3739 142° Southeast 444 511 35,000  Level Fort Worth Center
08:37PM 32.4781 -100.2828 142° Southeast 448 516 35,000  Level Fort Worth Center
08:38PM 32.3781 -100.1936 143° Southeast 449 517 35,000  Level Fort Worth Center
08:39PM 32.2800 -100.1036 142° Southeast 450 518 35,000 -600 Level Fort Worth Center
08:40PM 32.1636 -99.9983 143° Southeast 445 512 33,800 -1,080 Descending Fort Worth Center
08:41PM 32.0672 -99.9122 143° Southeast 442 509 32,800 -960 Descending Fort Worth Center
08:42PM 31.9683 -99.8244 143° Southeast 440 506 31,900 -900 Descending Fort Worth Center
08:43PM 31.8686 -99.7339 142° Southeast 448 516 31,000 -900 Descending Fort Worth Center
08:44PM 31.7675 -99.6419 142° Southeast 456 525 30,100 -960 Descending Fort Worth Center
08:45PM 31.6650 -99.5522 143° Southeast 458 527 29,100 -720 Descending Fort Worth Center
08:46PM 31.6094 -99.5028 143° Southeast 459 528 29,000 -120 Descending Houston Center
08:47PM 31.4897 -99.3950 142° Southeast 460 529 29,000  Level Houston Center
08:48PM 31.3858 -99.3033 143° Southeast 461 531 29,000  Level Houston Center
08:49PM 31.2808 -99.2111 143° Southeast 462 532 29,000  Level Houston Center
08:50PM 31.1789 -99.1214 143° Southeast 462 532 29,000  Level Houston Center
08:51PM 31.0747 -99.0297 143° Southeast 462 532 29,000 -480 Level Houston Center
08:52PM 30.9706 -98.9406 144° Southeast 462 532 28,100 -1,920 Descending Houston Center
08:53PM 30.8692 -98.8508 143° Southeast 460 529 25,100 -3,000 Descending Houston Center
08:54PM 30.7869 -98.7189 126° Southeast 449 517 22,000 -2,760 Descending Houston Center
08:55PM 30.7725 -98.5761 97° East 445 512 19,500 -2,340 Descending Houston Center
08:56PM 30.7597 -98.4400 96° East 426 490 17,200 -2,460 Descending Houston Center
08:57PM 30.7458 -98.3086 97° East 408 470 14,500 -2,580 Descending Houston Center
08:58PM 30.7322 -98.1806 97° East 399 459 11,900 -2,280 Descending Houston Center
08:59PM 30.7092 -98.0639 103° East 381 438 9,900 -1,440 Descending Houston Center
09:00PM 30.6394 -98.0106 147° Southeast 306 352 9,000 -1,500 Descending Houston Center
09:01PM 30.5575 -97.9617 153° Southeast 287 330 6,800 -1,680 Descending Houston Center
09:03PM 30.4847 -97.9250 157° South 286 329 5,600 -1,020 Descending Houston Center
09:04PM 30.4133 -97.8911 158° South 281 323 4,700 -840 Descending Houston Center
09:05PM 30.3450 -97.8583 158° South 271 312 3,900 -840 Descending Houston Center
09:06PM 30.2769 -97.8244 157° South 269 310 3,000 -480 Descending Houston Center
09:07PM 30.2061 -97.7889 157° South 269 310 3,000  Level Houston Center
09:08PM 30.1444 -97.7567 156° South 251 289 3,000 -60 Level Houston Center
09:09PM 30.0833 -97.7408 167° South 234 269 2,900 -480 Descending Houston Center
09:10PM 30.0986 -97.6781 74° East 187 215 2,100 -780 Descending Houston Center
09:11PM 30.1333 -97.6772 North 137 158 1,400 -540 Descending Houston Center
09:12PM 30.1647 -97.6775 360° North 129 148 1,000 -420 Descending Houston Center
09:14PM 30.1945 -97.6699 12° North  Level Estimated